Butte Meadows, California
Current Conditions -  °F | °C
As of 12:50 PM on Sunday 23 Nov 2014 (Local Time) from KCIC Reporting Station
Broken Clouds Broken Clouds  
Wind Chill: 55°   Ceiling: 15000
Heat Index: 55°   Visibility: 80mi
Dew Point: 41°   Wind: 12mph
Humidity: 58%   Direction: 320°NW
Pressure: 30.29"   Gusts: NA
Location:  40.1192°N, 121.505°W
Report Text: KCIC 232050Z 32010KT 80SM FEW 040 BKN150 BKN250 13/05 A3029
Loading
Personal Weather Stations






























Interactive Weather Map New forecast layout! Learn more

10-Day Weather Forecast

Advertisements
Track Severe Weather on mobile